Parsabad-Moghan Airport

Airport
ICAO code: 
OITP
IATA Code: 
PFQ
Summary
ICAO Region: 
MID
Territory: 
Location: 
Parsabad, Ardabil Province
Serving: 
Parsabad
Elevation: 
253 ft
Coordinates: 
Aerial View: 
39° 36' 25.899" N, 47° 52' 37.444" E
Metar
Observation
OITP 261800Z 32006KT 9999 FEW035CB 25/18 Q1004
Station
Parsabad-Moghan Airport
Date/Time
2022-06-26 18:00:00
Wind direction
320°
Wind speed
06 kts
Lowest cloud amount
few clouds
Temperature
25°C
Dew point
18°C
Humidity
65%
QNH
1004 hPa
Weather condition
n/a

Airport serving Parsabad in northern Iran close to the border with Azerbaijan.

Climatology

Temperate semi-arid climate (Köppen climate classification BSk).

Runways

Designator Length Width Surface Rops
11/29 2595 35 ASP No/No
Airport map: 
Aerial View: 

SKYbrary Partners:

Safety knowledge contributed by: